Aviation Digital Data Service (ADDS)

Output produced by METARs form (0956 UTC 19 January 2019)
found at http://www.aviationweather.gov/metar/data/
 
KBHK 190951Z AUTO 14007KT 10SM FEW070 OVC090 M12/M13 A3017 RMK AO2 SLP273 T11171128
K6S0 190935Z AUTO 25012G18KT 10SM CLR 02/M08 A3010 RMK A01
KBIL 190953Z 23014KT 10SM SCT240 M05/M07 A3010 RMK AO2 SLP238 T10501072
KBIL 190529Z 1906/2006 23010KT P6SM SCT200 
     FM191600 24015G22KT P6SM SCT070 BKN200 
     FM200200 24015KT P6SM VCSH SCT040 BKN070
       
KBZN 190856Z AUTO 15004KT 10SM CLR M08/M11 A3013 RMK AO2 SLP241 T10831111 58010
KBZN 190526Z 1906/2012 VRB06KT P6SM SCT060 BKN200 
     FM191300 VRB06KT P6SM VCSH OVC060 
     FM191900 23009G17KT P6SM SCT020
       
KBTM 190953Z AUTO 33003KT 10SM FEW075 OVC110 M06/M11 A3008 RMK AO2 SLP219 T10611106
KBTM 190520Z 1906/2006 VRB04KT P6SM OVC100 
     FM191000 VRB03KT P6SM VCSH OVC050 
     FM191900 23008KT 5SM -SHSN OVC030
       
KDLN 190953Z AUTO 24009KT 10SM CLR M03/M07 A3013 RMK AO2 SLP224 T10281067
KEKS 190935Z AUTO 17014G21KT 10SM BKN070 OVC090 M01/M07 A3019 RMK AO2
KEKS 190526Z 1906/2006 17016KT P6SM FEW060 BKN150 
     FM191200 19016G24KT P6SM VCSH SCT030 OVC045 
     TEMPO 1912/1916 4SM -SN OVC025 
     FM192100 20021G30KT P6SM BKN080
       
KGGW 190953Z AUTO 11013KT 10SM OVC080 M14/M17 A3019 RMK AO2 SLP276 T11391167
KGGW 190546Z 1906/2006 10010KT P6SM SCT013 OVC050 
     TEMPO 1906/1909 BKN013 
     FM191200 10008KT P6SM BKN045 
     FM192300 11007KT P6SM OVC100
       
KGDV 190856Z AUTO 04003KT 10SM OVC095 M16/M18 A3024 RMK AO2 SLP299 T11611183 58012 FZRANO
KGDV 190520Z 1906/2006 VRB05KT P6SM OVC100 
     FM191900 VRB05KT P6SM SCT080
       
KGTF 190953Z 20011KT 10SM CLR M01/M06 A3001 RMK AO2 SLP215 T10111061
KGTF 190526Z 1906/2006 21012G20KT P6SM SCT100 BKN200 
     FM191900 22022G30KT P6SM SCT060 BKN200
       
KHVR 190953Z AUTO 00000KT 10SM CLR M21/M22 A3011 RMK AO2 SLP257 T12061222
KHVR 190526Z 1906/2006 VRB06KT P6SM SCT200 
     FM191400 12007KT P6SM OVC150 WS020/27035KT 
     FM192100 25013G23KT P6SM SCT060 SCT150
       
KHLN 190953Z AUTO 00000KT 10SM FEW120 M04/M07 A3006 RMK AO2 PRESFR SLP222 T10391067
KHLN 190526Z 1906/2006 VRB06KT P6SM BKN200 
     FM191900 24011KT P6SM BKN120 
     FM192200 27016G24KT P6SM SCT060 BKN120 
     FM200200 24009KT P6SM BKN060
       
KJDN 190948Z AUTO 09006KT M09/M12 A3014 RMK AO1 SLP259 T10941122
KGPI 190953Z AUTO 00000KT 1/2SM FZFG OVC001 M04/M06 A3009 RMK AO2
KGPI 190721Z 1907/2006 00000KT 1/2SM FZFG VV002 
     FM191100 17003KT P6SM VCSH OVC040 
     FM191500 16003KT 3SM -SN BKN030 OVC040 
     FM191900 20005KT P6SM VCSH OVC050
       
KLWT 190854Z AUTO 00000KT 10SM CLR M08/M09 A3006 RMK AO2 SLP230 T10781094 58004
KLWT 190526Z 1906/2006 29009KT P6SM SCT200 
     FM191900 23014G24KT P6SM SCT150 BKN200
       
KLVM 190953Z AUTO 22027G35KT 10SM CLR 02/M06 A3009 RMK AO2 PK WND 22039/0927 SLP201 T00221061 $
KLVM 190529Z 1906/2006 27011KT P6SM FEW060 BKN200 
     TEMPO 1906/1908 24018G26KT 
     FM190800 24020G30KT P6SM BKN150 
     FM191200 23028G43KT P6SM BKN060 
     FM200200 23020G32KT P6SM SCT060 SCT200
       
KM75 190935Z AUTO 05008KT 10SM BKN085 M15/M17 A3017 RMK A01
KMLS 190953Z AUTO 10SM OVC065 M10/M12 A3017 RMK AO2 SLP262 T11001117
KMLS 190529Z 1906/2006 07005KT P6SM FEW020 OVC060 
     FM191100 10006KT P6SM VCFG FEW005 SCT060 
     FM191700 12007KT P6SM BKN150 
     FM200200 26010KT P6SM BKN070
       
KMSO 190953Z AUTO 00000KT 10SM BKN080 OVC090 M03/M04 A3010 RMK AO2 SLP224 T10331044
KMSO 190520Z 1906/2006 VRB03KT 5SM BR SCT030 BKN060 BKN100 
     FM190900 12003KT P6SM VCSH OVC050 
     FM191200 13004KT 3SM -SN BKN030 OVC050 
     FM191600 15006KT P6SM VCSH OVC050 
     FM192000 30007KT 5SM -SHSN BKN030 OVC040
       
KSDY 190856Z AUTO 11003KT 10SM FEW070 OVC100 M16/M19 A3029 RMK AO2 SLP312 T11611189 57020 FZRANO
KSDY 190520Z 1906/2006 VRB05KT P6SM OVC090 
     FM192000 VRB05KT P6SM BKN040
       
KWYS 190935Z AUTO 22010G16KT 10SM OVC008 M05/M06 A3020 RMK AO2
KOLF 190953Z AUTO 08007KT 10SM OVC049 M14/M17 A3027 RMK AO2 SLP297 T11441172 TSNO
KOLF 190520Z 1906/2006 07006KT P6SM OVC090 
     FM191800 07007KT P6SM SCT045 
     FM200200 VRB05KT P6SM BKN040